createdAt,value
2023-03-07T00:00:42.244Z,52.80
2023-03-07T00:03:13.857Z,54.45
2023-03-07T00:05:43.601Z,53.30
2023-03-07T00:08:13.097Z,52.92
2023-03-07T00:10:42.185Z,55.00
2023-03-07T00:13:10.966Z,55.00
2023-03-07T00:15:41.382Z,52.30
2023-03-07T00:18:10.543Z,53.33
2023-03-07T00:20:39.248Z,51.80
2023-03-07T00:23:08.068Z,49.17
2023-03-07T00:25:36.808Z,49.22
2023-03-07T00:28:05.843Z,48.40
2023-03-07T00:30:34.490Z,45.65
2023-03-07T00:33:03.504Z,49.10
2023-03-07T00:35:32.175Z,48.35
2023-03-07T00:38:01.050Z,50.03
2023-03-07T00:40:29.760Z,50.65
2023-03-07T00:42:58.579Z,51.38
2023-03-07T00:45:27.223Z,53.78
2023-03-07T00:47:57.732Z,53.58
2023-03-07T00:50:26.859Z,54.53
2023-03-07T00:52:55.628Z,53.75
2023-03-07T00:55:24.541Z,56.83
2023-03-07T00:57:53.321Z,53.22
2023-03-07T01:00:22.885Z,55.10
2023-03-07T01:02:54.331Z,55.53
2023-03-07T01:05:25.934Z,52.70
2023-03-07T01:07:57.216Z,55.00
2023-03-07T01:10:29.750Z,57.38
2023-03-07T01:12:59.648Z,53.25
2023-03-07T01:15:29.212Z,55.75
2023-03-07T01:17:59.068Z,56.28
2023-03-07T01:20:28.426Z,56.40
2023-03-07T01:22:58.130Z,59.58
2023-03-07T01:25:27.612Z,55.50
2023-03-07T01:27:57.372Z,54.70
2023-03-07T01:30:30.565Z,58.95
2023-03-07T01:33:03.172Z,60.70
2023-03-07T01:35:39.175Z,58.65
2023-03-07T01:38:08.438Z,56.95
2023-03-07T01:40:42.065Z,55.45
2023-03-07T01:43:38.223Z,53.78
2023-03-07T01:46:21.661Z,62.40
2023-03-07T01:49:06.043Z,57.83
2023-03-07T01:51:40.548Z,57.92
2023-03-07T01:54:13.039Z,59.78
2023-03-07T01:56:45.732Z,56.63
2023-03-07T01:59:20.667Z,56.70
2023-03-07T02:01:51.674Z,62.60
2023-03-07T02:04:48.288Z,59.83
2023-03-07T02:07:18.980Z,58.47
2023-03-07T02:09:51.138Z,57.30
2023-03-07T02:12:22.989Z,131.82
2023-03-07T02:17:22.564Z,87.90
2023-03-07T02:19:58.277Z,78.65
2023-03-07T02:22:28.666Z,88.57
2023-03-07T02:25:38.763Z,82.15
2023-03-07T02:28:13.313Z,67.22
2023-03-07T02:30:55.969Z,63.58
2023-03-07T02:33:26.770Z,59.53
2023-03-07T02:36:14.393Z,57.80
2023-03-07T02:38:57.866Z,57.38
2023-03-07T02:41:33.691Z,56.25
2023-03-07T02:44:08.313Z,61.08
2023-03-07T02:46:37.840Z,64.05
2023-03-07T02:49:06.951Z,59.78
2023-03-07T02:51:36.415Z,59.95
2023-03-07T02:54:05.493Z,58.70
2023-03-07T02:56:35.488Z,59.25
2023-03-07T02:59:04.974Z,58.75
2023-03-07T03:01:34.549Z,60.47
2023-03-07T03:04:04.125Z,61.42
2023-03-07T03:06:33.147Z,61.78
2023-03-07T03:09:02.546Z,65.93
2023-03-07T03:11:31.550Z,64.60
2023-03-07T03:14:01.159Z,66.28
2023-03-07T03:16:31.180Z,68.13
2023-03-07T03:19:01.650Z,73.13
2023-03-07T03:21:30.741Z,72.88
2023-03-07T03:24:06.363Z,75.05
2023-03-07T03:26:38.023Z,78.75
2023-03-07T03:29:07.594Z,81.30
2023-03-07T03:31:36.852Z,83.90
2023-03-07T03:34:07.518Z,78.00
2023-03-07T03:36:36.895Z,76.25
2023-03-07T03:39:11.827Z,67.68
2023-03-07T03:41:47.515Z,71.00
2023-03-07T03:44:17.910Z,70.10
2023-03-07T03:46:48.837Z,67.22
2023-03-07T03:49:20.482Z,74.50
2023-03-07T03:51:51.984Z,76.25
2023-03-07T03:54:21.341Z,83.00
2023-03-07T03:56:49.980Z,77.25
2023-03-07T03:59:18.836Z,56.88
2023-03-07T04:01:48.100Z,48.85
2023-03-07T04:04:17.313Z,46.78
2023-03-07T04:06:46.150Z,41.67
2023-03-07T04:09:15.189Z,39.47
2023-03-07T04:14:16.215Z,39.08
2023-03-07T04:16:44.897Z,42.03
2023-03-07T04:19:14.088Z,40.17
2023-03-07T04:21:44.164Z,45.13
2023-03-07T04:24:16.460Z,40.25
2023-03-07T04:26:45.369Z,43.20
2023-03-07T04:29:14.589Z,45.33
2023-03-07T04:31:46.227Z,26.77
2023-03-07T04:34:15.424Z,31.40
2023-03-07T04:36:44.282Z,26.40
2023-03-07T04:39:15.269Z,26.65
2023-03-07T04:41:45.688Z,25.05
2023-03-07T04:44:22.791Z,23.92
2023-03-07T04:46:52.210Z,24.02
2023-03-07T04:49:20.941Z,26.73
2023-03-07T04:51:50.245Z,26.15
2023-03-07T04:54:20.070Z,25.38
2023-03-07T04:56:50.988Z,27.67
2023-03-07T04:59:21.405Z,27.88
2023-03-07T05:01:51.318Z,26.38
2023-03-07T05:04:20.209Z,27.35
2023-03-07T05:06:49.371Z,25.33
2023-03-07T05:09:18.117Z,26.25
2023-03-07T05:11:47.163Z,25.48
2023-03-07T05:14:15.835Z,26.90
2023-03-07T05:16:47.067Z,24.80
2023-03-07T05:19:16.203Z,24.60
2023-03-07T05:21:45.052Z,22.30
2023-03-07T05:24:14.251Z,21.27
2023-03-07T05:26:44.193Z,21.27
2023-03-07T05:29:13.035Z,22.35
2023-03-07T05:31:41.730Z,22.73
2023-03-07T05:34:13.709Z,22.98
2023-03-07T05:36:42.911Z,24.27
2023-03-07T05:39:11.708Z,25.33
2023-03-07T05:41:40.529Z,24.30
2023-03-07T05:44:09.618Z,25.88
2023-03-07T05:46:38.692Z,20.17
2023-03-07T05:49:07.332Z,20.67
2023-03-07T05:51:36.225Z,30.17
2023-03-07T05:54:05.069Z,22.80
2023-03-07T05:56:34.033Z,25.58
2023-03-07T05:59:03.109Z,24.58
2023-03-07T06:01:32.163Z,25.48
2023-03-07T06:04:01.376Z,22.83
2023-03-07T06:06:30.491Z,29.88
2023-03-07T06:08:59.305Z,27.38
2023-03-07T06:11:28.615Z,30.73
2023-03-07T06:13:57.390Z,29.98
2023-03-07T06:16:26.488Z,34.25
2023-03-07T06:18:55.960Z,39.97
2023-03-07T06:21:25.122Z,25.25
2023-03-07T06:23:54.006Z,22.83
2023-03-07T06:26:24.917Z,25.20
2023-03-07T06:29:23.874Z,26.52
2023-03-07T06:31:53.012Z,23.88
2023-03-07T06:34:21.954Z,23.80
2023-03-07T06:36:51.107Z,19.90
2023-03-07T06:39:24.150Z,22.08
2023-03-07T06:42:06.246Z,23.13
2023-03-07T06:44:35.953Z,21.77
2023-03-07T06:47:04.726Z,22.70
2023-03-07T06:49:34.113Z,24.77
2023-03-07T06:52:02.932Z,22.88
2023-03-07T06:54:32.455Z,24.02
2023-03-07T06:57:01.458Z,21.33
2023-03-07T06:59:30.335Z,25.23
2023-03-07T07:01:59.464Z,23.50
2023-03-07T07:04:28.867Z,22.50
2023-03-07T07:06:57.636Z,14.93
2023-03-07T07:09:28.365Z,17.25
2023-03-07T07:11:57.483Z,11.50
2023-03-07T07:14:26.334Z,15.18
2023-03-07T07:16:55.519Z,16.25
2023-03-07T07:19:24.510Z,15.75
2023-03-07T07:21:54.139Z,11.85
2023-03-07T07:24:24.619Z,12.75
2023-03-07T07:26:56.946Z,10.95
2023-03-07T07:29:26.396Z,16.10
2023-03-07T07:31:56.132Z,15.68
2023-03-07T07:34:25.114Z,22.35
2023-03-07T07:36:54.415Z,18.85
2023-03-07T07:39:24.325Z,18.90
2023-03-07T07:41:54.253Z,37.58
2023-03-07T07:44:26.046Z,89.55
2023-03-07T07:46:58.235Z,31.73
2023-03-07T07:49:27.897Z,26.60
2023-03-07T07:51:57.089Z,35.35
2023-03-07T07:54:26.362Z,26.25
2023-03-07T07:56:55.261Z,34.33
2023-03-07T07:59:24.309Z,18.60
2023-03-07T08:01:53.666Z,28.98
2023-03-07T08:04:22.643Z,58.15
2023-03-07T08:06:51.483Z,29.17
2023-03-07T08:09:20.178Z,22.13
2023-03-07T08:11:49.507Z,24.67
2023-03-07T08:14:18.246Z,34.25
2023-03-07T08:16:47.133Z,28.23
2023-03-07T08:19:15.891Z,18.02
2023-03-07T08:21:44.738Z,22.60
2023-03-07T08:24:13.459Z,20.73
2023-03-07T08:26:42.327Z,18.23
2023-03-07T08:29:11.062Z,23.17
2023-03-07T08:31:58.770Z,22.60
2023-03-07T08:34:27.973Z,18.77
2023-03-07T08:36:56.702Z,15.10
2023-03-07T08:39:25.786Z,15.05
2023-03-07T08:41:56.135Z,16.83
2023-03-07T08:44:24.996Z,12.13
2023-03-07T08:46:53.726Z,14.50
2023-03-07T08:49:22.610Z,11.32
2023-03-07T08:51:51.719Z,11.63
2023-03-07T08:54:20.846Z,11.48
2023-03-07T08:56:49.489Z,16.05
2023-03-07T08:59:18.400Z,11.00
2023-03-07T09:01:49.423Z,10.82
2023-03-07T09:04:18.429Z,8.95
2023-03-07T09:06:47.338Z,8.02
2023-03-07T09:09:16.491Z,7.53
2023-03-07T09:11:45.267Z,13.07
2023-03-07T09:14:14.247Z,11.23
2023-03-07T09:16:43.016Z,8.75
2023-03-07T09:19:12.127Z,8.45
2023-03-07T09:21:41.798Z,6.43
2023-03-07T09:24:10.720Z,6.57
2023-03-07T09:26:39.456Z,5.60
2023-03-07T09:29:08.574Z,7.43
2023-03-07T09:31:37.302Z,9.52
2023-03-07T09:34:06.440Z,11.93
2023-03-07T09:36:35.334Z,8.63
2023-03-07T09:39:05.844Z,7.68
2023-03-07T09:41:54.999Z,7.32
2023-03-07T09:44:45.310Z,10.20
2023-03-07T09:47:44.926Z,8.18
2023-03-07T09:50:24.511Z,7.45
2023-03-07T09:52:59.758Z,9.85
2023-03-07T09:55:30.992Z,8.50
2023-03-07T09:58:10.787Z,11.77
2023-03-07T10:00:47.967Z,12.90
2023-03-07T10:03:33.864Z,12.13
2023-03-07T10:06:27.874Z,13.18
2023-03-07T10:08:59.686Z,11.38
2023-03-07T10:11:53.107Z,11.63
2023-03-07T10:14:43.123Z,11.15
2023-03-07T10:17:36.413Z,10.27
2023-03-07T10:20:36.295Z,7.78
2023-03-07T10:23:22.565Z,9.27
2023-03-07T10:26:09.314Z,9.43
2023-03-07T10:28:42.694Z,8.35
2023-03-07T10:31:30.820Z,7.88
2023-03-07T10:34:00.519Z,8.30
2023-03-07T10:37:00.120Z,11.00
2023-03-07T10:39:54.143Z,10.02
2023-03-07T10:42:36.071Z,9.85
2023-03-07T10:45:05.457Z,6.47
2023-03-07T10:47:34.292Z,8.43
2023-03-07T10:50:31.151Z,8.85
2023-03-07T10:53:02.969Z,8.77
2023-03-07T10:55:43.843Z,8.45
2023-03-07T10:58:27.284Z,10.02
2023-03-07T11:01:08.102Z,11.55
2023-03-07T11:04:01.448Z,9.57
2023-03-07T11:06:45.497Z,8.95
2023-03-07T11:09:32.586Z,11.10
2023-03-07T11:12:12.036Z,9.45
2023-03-07T11:14:54.417Z,9.73
2023-03-07T11:17:42.636Z,12.38
2023-03-07T11:20:30.116Z,14.75
2023-03-07T11:23:28.056Z,14.57
2023-03-07T11:25:58.268Z,13.48
2023-03-07T11:28:32.673Z,12.55
2023-03-07T11:31:07.302Z,14.52
2023-03-07T11:33:49.446Z,15.02
2023-03-07T11:36:36.288Z,17.27
2023-03-07T11:39:14.067Z,17.92
2023-03-07T11:41:48.624Z,18.17
2023-03-07T11:44:35.974Z,18.45
2023-03-07T11:47:19.363Z,19.58
2023-03-07T11:50:16.326Z,18.33
2023-03-07T11:53:22.547Z,16.15
2023-03-07T11:56:22.709Z,19.30
2023-03-07T11:59:00.081Z,20.00
2023-03-07T12:01:38.033Z,18.08
2023-03-07T12:04:44.037Z,16.65
2023-03-07T12:07:41.397Z,15.15
2023-03-07T12:10:49.217Z,16.05
2023-03-07T12:13:33.225Z,16.13
2023-03-07T12:16:16.810Z,12.60
2023-03-07T12:19:31.747Z,14.85
2023-03-07T12:22:12.314Z,17.65
2023-03-07T12:25:20.596Z,19.15
2023-03-07T12:28:01.543Z,28.17
2023-03-07T12:30:39.658Z,16.95
2023-03-07T12:33:17.507Z,14.25
2023-03-07T12:35:50.911Z,16.17
2023-03-07T12:38:36.774Z,13.35
2023-03-07T12:41:37.126Z,13.68
2023-03-07T12:44:14.042Z,13.73
2023-03-07T12:46:52.844Z,12.55
2023-03-07T12:49:50.225Z,13.13
2023-03-07T12:52:41.767Z,14.10
2023-03-07T12:55:38.222Z,16.77
2023-03-07T12:58:39.198Z,14.90
2023-03-07T13:01:29.318Z,16.60
2023-03-07T13:04:25.446Z,17.27
2023-03-07T13:06:57.352Z,17.48
2023-03-07T13:09:28.168Z,16.27
2023-03-07T13:12:26.283Z,15.45
2023-03-07T13:15:24.306Z,16.25
2023-03-07T13:17:53.251Z,16.33
2023-03-07T13:20:31.954Z,14.60
2023-03-07T13:23:12.728Z,19.15
2023-03-07T13:26:06.423Z,17.13
2023-03-07T13:28:35.310Z,19.98
2023-03-07T13:31:22.131Z,18.27
2023-03-07T13:33:51.152Z,19.23
2023-03-07T13:36:39.893Z,20.25
2023-03-07T13:39:39.113Z,17.88
2023-03-07T13:42:50.027Z,20.17
2023-03-07T13:45:40.464Z,21.25
2023-03-07T13:48:21.608Z,21.77
2023-03-07T13:50:53.552Z,22.45
2023-03-07T13:53:32.548Z,21.50
2023-03-07T13:56:16.711Z,21.15
2023-03-07T13:59:03.675Z,21.58
2023-03-07T14:01:36.645Z,25.98
2023-03-07T14:04:05.993Z,25.80
2023-03-07T14:06:45.105Z,26.42
2023-03-07T14:09:22.031Z,27.45
2023-03-07T14:12:10.310Z,28.00
2023-03-07T14:14:57.123Z,29.35
2023-03-07T14:18:13.125Z,26.75
2023-03-07T14:20:52.868Z,27.48
2023-03-07T14:23:52.689Z,24.23
2023-03-07T14:26:34.428Z,21.77
2023-03-07T14:29:20.380Z,23.25
2023-03-07T14:31:51.824Z,23.58
2023-03-07T14:34:36.757Z,26.23
2023-03-07T14:37:13.955Z,28.67
2023-03-07T14:40:01.062Z,30.45
2023-03-07T14:42:47.398Z,30.55
2023-03-07T14:45:37.039Z,36.10
2023-03-07T14:48:56.481Z,36.97
2023-03-07T14:51:29.372Z,40.00
2023-03-07T14:53:59.983Z,38.55
2023-03-07T14:56:33.101Z,39.40
2023-03-07T14:59:04.372Z,41.50
2023-03-07T15:01:36.662Z,45.20
2023-03-07T15:04:22.554Z,45.45
2023-03-07T15:07:05.609Z,47.28
2023-03-07T15:09:36.547Z,47.75
2023-03-07T15:12:32.668Z,45.65
2023-03-07T15:15:05.599Z,50.05
2023-03-07T15:17:44.644Z,51.22
2023-03-07T15:20:26.917Z,54.20
2023-03-07T15:23:09.130Z,51.78
2023-03-07T15:25:39.830Z,52.97
2023-03-07T15:28:28.295Z,47.63
2023-03-07T15:30:58.221Z,48.92
2023-03-07T15:33:31.576Z,48.20
2023-03-07T15:36:21.680Z,49.75
2023-03-07T15:38:52.697Z,49.10
2023-03-07T15:41:34.438Z,51.13
2023-03-07T15:44:06.428Z,51.35
2023-03-07T15:46:37.028Z,48.75
2023-03-07T15:49:06.228Z,47.35
2023-03-07T15:51:39.449Z,43.55
2023-03-07T15:54:22.855Z,44.15
2023-03-07T15:57:00.295Z,43.10
2023-03-07T15:59:35.783Z,44.03
2023-03-07T16:02:28.990Z,44.58
2023-03-07T16:04:58.733Z,47.00
2023-03-07T16:07:27.482Z,48.35
2023-03-07T16:09:56.643Z,52.88
2023-03-07T16:12:26.523Z,51.55
2023-03-07T16:14:56.436Z,46.35
2023-03-07T16:17:40.750Z,45.67
2023-03-07T16:20:25.368Z,44.08
2023-03-07T16:22:54.724Z,48.85
2023-03-07T16:25:25.618Z,49.00
2023-03-07T16:27:57.903Z,48.00
2023-03-07T16:30:30.249Z,47.90
2023-03-07T16:32:59.145Z,45.70
2023-03-07T16:35:29.533Z,96.85
2023-03-07T16:37:58.702Z,99.97
